Time;durP1;ratioP1;P1;durP2;ratioP2;P2;SDS_P1;SDS_P2;PMS_P1;PMS_P2;Temp;Humidity;BMP_temperature;BMP_pressure;BME280_temperature;BME280_humidity;BME280_pressure;Samples;Min_cycle;Max_cycle;Signal;HPM_P1;HPM_P2
2023/04/04 00:00:15;;;;;;;3.22;0.80;;;9.40;56.90;;;;;;5060601;28;20123;-80
2023/04/04 00:02:41;;;;;;;2.63;0.80;;;9.30;57.10;;;;;;5093931;28;20047;-80
2023/04/04 00:05:07;;;;;;;2.85;0.70;;;9.30;57.50;;;;;;5077176;28;20114;-81
2023/04/04 00:07:33;;;;;;;3.72;0.98;;;9.30;57.20;;;;;;5076661;28;20028;-81
2023/04/04 00:09:59;;;;;;;6.38;1.38;;;9.30;56.80;;;;;;5059915;28;20119;-80
2023/04/04 00:12:24;;;;;;;3.20;1.02;;;9.10;57.20;;;;;;5060184;28;20046;-80
2023/04/04 00:14:50;;;;;;;4.82;1.20;;;9.10;57.70;;;;;;5076383;28;20473;-80
2023/04/04 00:17:16;;;;;;;2.85;1.13;;;9.00;57.50;;;;;;5094716;28;20494;-80
2023/04/04 00:19:42;;;;;;;3.25;1.30;;;9.00;57.90;;;;;;5076372;28;20032;-80
2023/04/04 00:22:08;;;;;;;3.85;1.20;;;9.00;58.10;;;;;;5076563;28;20028;-80
2023/04/04 00:24:34;;;;;;;2.90;0.90;;;9.10;58.20;;;;;;5076323;28;20387;-80
2023/04/04 00:27:00;;;;;;;2.60;0.88;;;9.10;58.10;;;;;;5076489;28;20059;-80
2023/04/04 00:29:26;;;;;;;3.97;1.42;;;9.20;58.30;;;;;;5075864;28;20029;-80
2023/04/04 00:31:52;;;;;;;4.60;1.38;;;9.20;58.60;;;;;;5076403;28;20039;-80
2023/04/04 00:34:17;;;;;;;5.47;1.40;;;9.20;58.30;;;;;;5059745;28;20159;-80
2023/04/04 00:36:43;;;;;;;3.85;1.08;;;9.20;58.00;;;;;;5076609;28;20479;-80
2023/04/04 00:39:08;;;;;;;3.97;1.25;;;9.20;58.00;;;;;;5042793;28;20411;-79
2023/04/04 00:41:35;;;;;;;4.53;1.48;;;9.10;58.00;;;;;;5076093;28;20506;-80
2023/04/04 00:44:00;;;;;;;4.30;1.17;;;9.00;57.80;;;;;;5094148;28;20032;-80
2023/04/04 00:46:28;;;;;;;4.95;1.17;;;8.90;58.00;;;;;;5075979;28;20472;-80
2023/04/04 00:48:54;;;;;;;5.07;1.15;;;8.90;58.40;;;;;;5075819;28;20057;-80
2023/04/04 00:51:19;;;;;;;3.55;1.20;;;8.80;58.50;;;;;;5075927;28;20039;-80
2023/04/04 00:53:46;;;;;;;5.25;1.20;;;8.70;58.60;;;;;;5059744;28;20383;-80
2023/04/04 00:56:13;;;;;;;3.88;1.05;;;8.70;58.80;;;;;;5075644;28;20043;-80
2023/04/04 00:58:43;;;;;;;5.68;1.30;;;8.60;59.00;;;;;;5075637;28;20128;-80
2023/04/04 01:01:12;;;;;;;2.53;1.10;;;8.60;59.20;;;;;;5093846;28;20103;-80
2023/04/04 01:03:38;;;;;;;3.10;1.10;;;8.60;59.60;;;;;;5059916;28;20046;-80
2023/04/04 01:06:05;;;;;;;5.05;1.20;;;8.70;59.80;;;;;;5059638;28;20495;-79
2023/04/04 01:08:32;;;;;;;3.40;1.60;;;8.60;59.50;;;;;;5059417;28;20032;-80
2023/04/04 01:10:58;;;;;;;2.53;1.30;;;8.60;59.50;;;;;;5093773;28;20035;-79
2023/04/04 01:13:25;;;;;;;3.45;0.90;;;8.60;59.50;;;;;;5075920;28;20380;-79
2023/04/04 01:15:51;;;;;;;6.25;1.50;;;8.60;59.40;;;;;;5075391;28;20051;-80
2023/04/04 01:18:20;;;;;;;3.53;1.27;;;8.50;59.50;;;;;;5058740;28;20460;-79
2023/04/04 01:21:20;;;;;;;4.20;1.33;;;8.50;59.90;;;;;;5075743;28;20425;-79
2023/04/04 01:23:50;;;;;;;3.85;1.25;;;8.50;60.10;;;;;;5071053;28;20096;-80
2023/04/04 01:26:16;;;;;;;3.58;1.02;;;8.50;59.80;;;;;;5093221;28;20024;-80
2023/04/04 01:28:42;;;;;;;3.55;1.27;;;8.50;59.70;;;;;;5076226;28;20196;-80
2023/04/04 01:31:11;;;;;;;6.18;1.60;;;8.50;59.90;;;;;;5059514;28;20446;-80
2023/04/04 01:33:42;;;;;;;5.00;1.13;;;8.40;59.60;;;;;;5075391;28;20435;-79
2023/04/04 01:36:24;;;;;;;4.13;1.25;;;8.40;59.90;;;;;;5093554;28;20059;-79
2023/04/04 01:39:01;;;;;;;6.97;2.00;;;8.40;60.00;;;;;;5074533;28;20148;-80
2023/04/04 01:41:31;;;;;;;2.72;1.13;;;8.30;60.20;;;;;;5075816;28;20388;-79
2023/04/04 01:43:57;;;;;;;4.85;1.58;;;8.30;60.50;;;;;;5076028;28;20035;-80
2023/04/04 01:46:23;;;;;;;4.43;1.40;;;8.30;60.50;;;;;;5075199;28;20036;-79
2023/04/04 01:48:49;;;;;;;3.17;1.42;;;8.10;60.50;;;;;;5058172;28;20434;-79
2023/04/04 01:51:15;;;;;;;4.68;1.17;;;8.00;60.80;;;;;;5041950;28;20030;-79
2023/04/04 01:53:40;;;;;;;6.28;1.60;;;7.80;61.30;;;;;;5074935;28;20036;-80
2023/04/04 01:56:06;;;;;;;3.53;1.50;;;7.90;61.60;;;;;;5075119;28;20149;-80
2023/04/04 01:58:32;;;;;;;6.25;1.58;;;7.90;61.70;;;;;;5075824;28;20035;-81
2023/04/04 02:00:57;;;;;;;3.47;1.40;;;7.90;61.70;;;;;;5075456;28;20414;-80
2023/04/04 02:03:23;;;;;;;4.88;1.77;;;7.90;61.60;;;;;;5058390;28;20051;-81
2023/04/04 02:05:49;;;;;;;4.38;1.48;;;7.90;61.70;;;;;;5093602;28;20024;-80
2023/04/04 02:08:14;;;;;;;3.85;1.17;;;8.00;61.60;;;;;;5058759;28;20123;-81
2023/04/04 02:10:40;;;;;;;3.17;1.40;;;8.00;61.50;;;;;;5041925;28;20031;-80
2023/04/04 02:13:06;;;;;;;4.78;1.17;;;8.00;61.40;;;;;;5058385;28;20066;-81
2023/04/04 02:15:35;;;;;;;4.80;1.35;;;8.10;61.40;;;;;;5075363;28;20063;-81
2023/04/04 02:18:00;;;;;;;3.42;1.05;;;8.10;61.30;;;;;;5058366;28;20434;-80
2023/04/04 02:20:26;;;;;;;3.13;1.27;;;8.20;61.20;;;;;;5093522;28;20024;-80
2023/04/04 02:22:53;;;;;;;4.10;1.33;;;8.30;60.90;;;;;;5058821;28;20368;-80
2023/04/04 02:25:21;;;;;;;4.47;1.13;;;8.20;60.20;;;;;;5075844;28;20028;-80
2023/04/04 02:27:46;;;;;;;2.47;1.00;;;8.10;60.50;;;;;;5097652;28;20125;-80
2023/04/04 02:30:13;;;;;;;5.82;1.33;;;8.10;60.80;;;;;;5062437;28;20115;-80
2023/04/04 02:32:39;;;;;;;4.78;1.38;;;8.20;60.90;;;;;;5078740;28;20070;-80
2023/04/04 02:35:05;;;;;;;4.55;1.05;;;8.20;60.60;;;;;;5078379;28;20480;-80
2023/04/04 02:37:30;;;;;;;5.03;1.50;;;8.20;60.40;;;;;;5078765;28;20127;-80
2023/04/04 02:39:56;;;;;;;5.68;1.48;;;8.10;60.20;;;;;;5044797;28;20129;-79
2023/04/04 02:42:22;;;;;;;3.97;1.00;;;8.00;60.80;;;;;;5061973;28;20532;-79
2023/04/04 02:44:47;;;;;;;4.60;1.38;;;8.00;61.00;;;;;;5096812;28;20028;-79
2023/04/04 02:47:13;;;;;;;4.90;0.93;;;8.00;61.20;;;;;;5061580;28;20039;-78
2023/04/04 02:49:38;;;;;;;4.05;0.98;;;8.00;61.00;;;;;;5078707;28;20127;-79
2023/04/04 02:52:04;;;;;;;3.53;1.20;;;8.10;60.70;;;;;;5062324;28;20040;-80
2023/04/04 02:54:30;;;;;;;2.88;0.85;;;8.10;60.90;;;;;;5078090;28;20031;-81
2023/04/04 02:56:56;;;;;;;3.28;1.05;;;8.20;60.90;;;;;;5096316;28;20058;-80
2023/04/04 02:59:22;;;;;;;4.45;1.40;;;8.20;60.80;;;;;;5078435;28;20059;-80
2023/04/04 03:01:47;;;;;;;3.50;1.20;;;8.20;60.50;;;;;;5078172;28;20024;-81
2023/04/04 03:04:13;;;;;;;4.22;1.27;;;8.20;60.70;;;;;;5078490;28;20039;-80
2023/04/04 03:06:40;;;;;;;4.63;1.25;;;8.20;60.70;;;;;;5044843;28;20043;-81
2023/04/04 03:09:06;;;;;;;5.75;1.17;;;8.20;60.50;;;;;;5078414;28;20028;-80
2023/04/04 03:11:31;;;;;;;4.28;1.75;;;8.20;60.50;;;;;;5096327;28;20139;-81
2023/04/04 03:13:57;;;;;;;3.85;1.40;;;8.20;60.70;;;;;;5077853;28;20396;-80
2023/04/04 03:16:23;;;;;;;5.47;1.30;;;8.20;60.60;;;;;;5060981;28;20051;-80
2023/04/04 03:18:49;;;;;;;3.15;0.95;;;8.20;60.50;;;;;;5061260;28;20086;-79
2023/04/04 03:21:15;;;;;;;3.08;0.90;;;8.20;60.50;;;;;;5077702;28;20063;-80
2023/04/04 03:23:41;;;;;;;3.10;1.30;;;8.20;60.60;;;;;;5095868;28;20020;-79
2023/04/04 03:26:07;;;;;;;4.07;1.35;;;8.30;60.70;;;;;;5061056;28;20036;-79
2023/04/04 03:28:33;;;;;;;3.50;1.00;;;8.20;60.60;;;;;;5095777;28;20099;-80
2023/04/04 03:31:04;;;;;;;3.33;1.33;;;8.20;60.80;;;;;;5077865;28;20028;-79
2023/04/04 03:33:29;;;;;;;5.50;1.45;;;8.20;60.60;;;;;;5095647;28;20407;-79
2023/04/04 03:35:55;;;;;;;3.35;1.05;;;8.10;60.60;;;;;;5095210;28;20028;-80
2023/04/04 03:38:20;;;;;;;4.88;1.30;;;8.10;60.70;;;;;;5060578;28;20489;-80
2023/04/04 03:40:46;;;;;;;3.13;1.10;;;8.00;60.80;;;;;;5096083;28;20127;-80
2023/04/04 03:43:12;;;;;;;4.15;1.70;;;8.00;60.80;;;;;;5060475;28;20024;-80
2023/04/04 03:45:38;;;;;;;2.78;0.95;;;7.90;60.90;;;;;;5095431;28;20034;-80
2023/04/04 03:48:03;;;;;;;3.42;1.42;;;7.90;61.10;;;;;;5095253;28;20068;-80
2023/04/04 03:50:30;;;;;;;3.33;1.08;;;8.00;61.20;;;;;;5077256;28;20031;-79
2023/04/04 03:52:57;;;;;;;3.28;1.25;;;8.00;61.10;;;;;;5061202;28;20077;-80
2023/04/04 03:55:23;;;;;;;4.38;1.38;;;8.10;61.20;;;;;;5095209;28;20525;-80
2023/04/04 03:57:49;;;;;;;3.55;1.00;;;8.10;60.90;;;;;;5077658;28;20032;-80
2023/04/04 04:00:15;;;;;;;3.80;1.25;;;8.10;61.10;;;;;;5076945;28;20058;-80
2023/04/04 04:02:40;;;;;;;4.10;1.05;;;8.00;60.80;;;;;;5060307;28;20032;-80
2023/04/04 04:05:06;;;;;;;6.75;1.20;;;8.00;61.00;;;;;;5077349;28;20028;-80
2023/04/04 04:07:32;;;;;;;4.57;1.45;;;8.00;61.20;;;;;;5059825;28;20071;-80
2023/04/04 04:09:58;;;;;;;3.42;1.10;;;7.90;61.00;;;;;;5076735;28;20052;-80
2023/04/04 04:12:25;;;;;;;5.32;1.10;;;7.90;61.20;;;;;;5076787;28;20055;-80
2023/04/04 04:14:50;;;;;;;6.03;1.80;;;7.90;61.40;;;;;;5060176;28;20032;-80
2023/04/04 04:17:16;;;;;;;4.63;1.20;;;7.80;61.30;;;;;;5076713;28;20047;-80
2023/04/04 04:19:42;;;;;;;3.45;1.48;;;7.70;61.60;;;;;;5094429;28;20368;-79
2023/04/04 04:22:07;;;;;;;4.85;1.67;;;7.70;61.70;;;;;;5094897;28;20472;-80
2023/04/04 04:24:33;;;;;;;3.47;1.45;;;7.50;62.10;;;;;;5043227;28;20035;-80
2023/04/04 04:26:58;;;;;;;5.85;1.85;;;7.50;62.30;;;;;;5076514;28;20118;-80
2023/04/04 04:29:24;;;;;;;5.25;1.20;;;7.40;62.20;;;;;;5059787;28;20115;-80
2023/04/04 04:31:51;;;;;;;4.55;1.35;;;7.30;62.60;;;;;;5075959;28;20032;-80
2023/04/04 04:34:17;;;;;;;4.93;1.30;;;7.40;62.90;;;;;;5075892;28;20115;-80
2023/04/04 04:36:43;;;;;;;4.22;1.25;;;7.50;62.80;;;;;;5059583;28;20166;-80
2023/04/04 04:39:08;;;;;;;4.32;1.30;;;7.60;62.80;;;;;;5094094;28;20143;-79
2023/04/04 04:41:34;;;;;;;7.63;1.75;;;7.70;62.60;;;;;;5060217;28;20439;-80
2023/04/04 04:44:00;;;;;;;4.30;1.20;;;7.70;62.50;;;;;;5093945;28;20165;-79
2023/04/04 04:46:25;;;;;;;2.92;1.17;;;7.80;62.60;;;;;;5059481;28;20070;-80
2023/04/04 04:48:51;;;;;;;4.90;1.20;;;7.80;62.70;;;;;;5075400;28;20460;-80
2023/04/04 04:51:16;;;;;;;3.67;1.70;;;7.80;62.60;;;;;;5094219;28;20027;-80
2023/04/04 04:53:42;;;;;;;5.15;1.60;;;7.80;63.30;;;;;;5059109;28;20532;-79
2023/04/04 04:56:08;;;;;;;5.75;1.65;;;7.80;62.00;;;;;;5043073;28;20028;-79
2023/04/04 04:58:33;;;;;;;4.57;1.60;;;7.80;62.00;;;;;;5076006;28;20374;-80
2023/04/04 05:00:59;;;;;;;2.13;1.10;;;7.70;62.10;;;;;;5059219;28;20063;-80
2023/04/04 05:03:26;;;;;;;5.38;1.10;;;7.70;62.20;;;;;;5059190;28;20028;-80
2023/04/04 05:05:52;;;;;;;4.85;1.50;;;7.70;62.20;;;;;;5076062;28;20453;-78
2023/04/04 05:08:17;;;;;;;4.95;1.50;;;7.70;62.30;;;;;;5076113;28;20073;-79
2023/04/04 05:10:43;;;;;;;6.60;1.70;;;7.80;62.40;;;;;;5075759;28;20406;-80
2023/04/04 05:13:09;;;;;;;3.88;1.30;;;7.80;62.40;;;;;;5076305;28;20036;-83
2023/04/04 05:15:35;;;;;;;5.22;1.75;;;7.80;62.30;;;;;;5076050;28;20032;-82
2023/04/04 05:18:01;;;;;;;4.43;1.42;;;7.70;62.40;;;;;;5060054;28;20111;-82
2023/04/04 05:20:27;;;;;;;5.28;2.03;;;7.50;62.30;;;;;;5094289;28;20066;-80
2023/04/04 05:22:52;;;;;;;5.63;1.60;;;7.40;63.00;;;;;;5076176;28;20032;-79
2023/04/04 05:25:18;;;;;;;8.20;0.75;;;7.50;68.30;;;;;;5076986;28;20051;-80
2023/04/04 05:27:48;;;;;;;4.72;1.50;;;7.60;71.60;;;;;;5094471;28;20100;-77
2023/04/04 05:30:14;;;;;;;3.83;1.65;;;7.90;74.80;;;;;;5092974;28;20120;-76
2023/04/04 05:32:39;;;;;;;8.60;1.77;;;8.00;69.90;;;;;;5093198;28;20123;-77
2023/04/04 05:35:05;;;;;;;5.30;1.52;;;8.00;66.90;;;;;;5076174;28;20456;-79
2023/04/04 05:37:31;;;;;;;5.05;1.42;;;7.80;68.30;;;;;;5093264;28;20341;-75
2023/04/04 05:39:57;;;;;;;5.88;1.15;;;7.90;68.10;;;;;;5092986;28;20056;-75
2023/04/04 05:42:22;;;;;;;4.00;1.55;;;7.90;67.70;;;;;;5075484;28;20441;-76
2023/04/04 05:44:48;;;;;;;5.07;1.48;;;8.00;66.20;;;;;;5058426;28;20040;-77
2023/04/04 05:47:14;;;;;;;5.60;1.92;;;8.00;66.90;;;;;;5075382;28;20035;-80
2023/04/04 05:49:40;;;;;;;5.53;1.52;;;8.00;65.90;;;;;;5075347;28;20372;-79
2023/04/04 05:52:06;;;;;;;2.38;1.20;;;8.00;66.70;;;;;;5093318;28;20021;-79
2023/04/04 05:54:32;;;;;;;4.65;1.20;;;8.10;69.60;;;;;;5058338;28;20035;-77
2023/04/04 05:56:57;;;;;;;7.60;2.15;;;8.30;70.30;;;;;;5075425;28;20040;-78
2023/04/04 05:59:23;;;;;;;8.27;2.40;;;8.30;65.60;;;;;;5076302;28;20032;-79
2023/04/04 06:01:49;;;;;;;3.17;1.85;;;7.90;62.80;;;;;;5045842;28;20078;-78
2023/04/04 06:04:14;;;;;;;8.35;2.30;;;7.60;64.10;;;;;;5078839;28;20083;-79
2023/04/04 06:06:40;;;;;;;5.22;2.20;;;7.50;64.50;;;;;;5062591;28;20036;-79
2023/04/04 06:09:05;;;;;;;5.88;2.50;;;7.40;65.20;;;;;;5096950;28;20080;-76
2023/04/04 06:11:31;;;;;;;7.68;2.40;;;7.30;65.50;;;;;;5096692;28;20032;-76
2023/04/04 06:13:57;;;;;;;5.20;2.25;;;7.30;64.90;;;;;;5078733;28;20032;-80
2023/04/04 06:16:23;;;;;;;5.38;2.00;;;7.40;65.90;;;;;;5097510;28;20042;-79
2023/04/04 06:18:48;;;;;;;6.07;2.00;;;7.60;66.60;;;;;;5097153;28;20033;-80
2023/04/04 06:21:14;;;;;;;7.47;2.20;;;7.80;66.40;;;;;;5098234;28;20472;-80
2023/04/04 06:23:40;;;;;;;6.57;2.17;;;8.00;66.00;;;;;;5079715;28;20379;-80
2023/04/04 06:26:07;;;;;;;5.35;1.95;;;8.00;65.40;;;;;;5079186;28;20107;-81
2023/04/04 06:28:33;;;;;;;5.22;2.33;;;8.10;65.40;;;;;;5078962;28;20491;-79
2023/04/04 06:30:59;;;;;;;5.07;1.98;;;8.20;65.60;;;;;;5078657;28;20044;-78
2023/04/04 06:33:25;;;;;;;5.45;2.05;;;8.30;65.50;;;;;;5062895;28;20032;-79
2023/04/04 06:35:50;;;;;;;4.38;2.10;;;8.30;64.80;;;;;;5066104;28;20036;-79
2023/04/04 06:38:16;;;;;;;9.00;2.28;;;8.20;64.50;;;;;;5063001;28;20036;-79
2023/04/04 06:40:42;;;;;;;6.18;2.20;;;8.20;64.60;;;;;;5096847;28;20056;-79
2023/04/04 06:43:09;;;;;;;8.77;2.22;;;8.20;65.00;;;;;;5079196;28;20073;-79
2023/04/04 06:45:34;;;;;;;10.40;2.42;;;8.00;64.60;;;;;;5079591;28;20118;-79
2023/04/04 06:48:01;;;;;;;5.75;2.17;;;8.10;65.10;;;;;;5096866;28;20527;-79
2023/04/04 06:50:29;;;;;;;6.35;1.83;;;8.10;65.30;;;;;;5096838;28;20460;-79
2023/04/04 06:52:56;;;;;;;6.85;1.85;;;8.30;64.50;;;;;;5096787;28;20020;-78
2023/04/04 06:55:22;;;;;;;7.32;1.70;;;8.30;63.40;;;;;;5079039;28;20042;-79
2023/04/04 06:57:48;;;;;;;4.15;1.40;;;8.20;63.20;;;;;;5078296;28;20044;-80
2023/04/04 07:00:14;;;;;;;5.80;1.58;;;8.10;63.10;;;;;;5097746;28;20615;-79
2023/04/04 07:02:40;;;;;;;5.55;1.60;;;8.10;63.10;;;;;;5080056;28;20478;-80
2023/04/04 07:05:06;;;;;;;7.80;1.80;;;8.20;63.30;;;;;;5097993;28;20024;-79
2023/04/04 07:07:32;;;;;;;5.70;2.10;;;8.20;62.60;;;;;;5062385;28;20063;-80
2023/04/04 07:09:57;;;;;;;7.68;2.05;;;8.00;62.30;;;;;;5097245;28;20024;-79
2023/04/04 07:12:23;;;;;;;7.85;1.70;;;8.00;62.70;;;;;;5077815;28;20035;-79
2023/04/04 07:14:49;;;;;;;7.18;1.90;;;7.90;63.00;;;;;;5096455;28;20062;-80
2023/04/04 07:17:15;;;;;;;6.90;1.45;;;7.90;62.60;;;;;;5061815;28;20040;-78
2023/04/04 07:19:40;;;;;;;6.22;1.70;;;8.00;63.70;;;;;;5061741;28;20032;-80
2023/04/04 07:22:06;;;;;;;8.45;2.33;;;8.10;63.90;;;;;;5061614;28;20379;-80
2023/04/04 07:24:32;;;;;;;4.35;1.42;;;8.20;62.80;;;;;;5061084;28;20028;-80
2023/04/04 07:26:57;;;;;;;5.18;1.48;;;8.10;62.40;;;;;;5096344;28;20036;-80
2023/04/04 07:29:23;;;;;;;5.10;1.58;;;8.10;62.80;;;;;;5061070;28;20028;-75
2023/04/04 07:31:49;;;;;;;5.15;1.90;;;8.20;63.70;;;;;;5061114;28;20127;-76
2023/04/04 07:34:15;;;;;;;7.93;2.38;;;8.20;63.50;;;;;;5045003;28;20028;-76
2023/04/04 07:36:41;;;;;;;7.93;2.28;;;8.20;63.20;;;;;;5077072;28;20353;-76
2023/04/04 07:39:07;;;;;;;4.63;1.98;;;8.30;62.90;;;;;;5095134;28;20051;-76
2023/04/04 07:41:33;;;;;;;5.78;1.70;;;8.30;63.10;;;;;;5077440;28;20039;-76
2023/04/04 07:43:59;;;;;;;5.13;1.85;;;8.40;62.90;;;;;;5060564;28;20122;-76
2023/04/04 07:46:26;;;;;;;5.90;1.70;;;8.40;62.90;;;;;;5060004;28;20476;-76
2023/04/04 07:48:52;;;;;;;5.30;1.88;;;8.40;62.90;;;;;;5076505;28;20107;-76
2023/04/04 07:51:22;;;;;;;3.95;1.73;;;8.50;62.70;;;;;;5076535;28;20060;-76
2023/04/04 07:53:48;;;;;;;7.03;1.95;;;8.70;62.30;;;;;;5060947;28;20024;-76
2023/04/04 07:56:13;;;;;;;5.78;1.67;;;8.90;62.60;;;;;;5094645;28;20128;-76
2023/04/04 07:58:39;;;;;;;4.47;1.60;;;9.00;61.70;;;;;;5076907;28;20032;-76
2023/04/04 08:01:05;;;;;;;4.65;1.50;;;8.90;61.00;;;;;;5076934;28;20428;-76
2023/04/04 08:03:30;;;;;;;5.88;1.73;;;8.90;61.50;;;;;;5094944;28;20063;-76
2023/04/04 08:05:56;;;;;;;6.22;2.00;;;8.90;62.20;;;;;;5060020;28;20433;-77
2023/04/04 08:08:22;;;;;;;4.75;1.70;;;9.00;62.10;;;;;;5076581;28;20437;-76
2023/04/04 08:10:51;;;;;;;7.68;1.60;;;9.10;63.20;;;;;;5077107;28;20035;-77
2023/04/04 08:13:16;;;;;;;8.48;1.75;;;9.20;61.90;;;;;;5062093;28;20039;-77
2023/04/04 08:15:43;;;;;;;3.83;1.50;;;9.40;61.70;;;;;;5060749;28;20031;-77
2023/04/04 08:18:08;;;;;;;4.43;1.42;;;9.50;60.20;;;;;;5094267;28;20032;-75
2023/04/04 08:20:34;;;;;;;7.30;2.22;;;9.60;60.20;;;;;;5077638;28;20039;-78
2023/04/04 08:23:00;;;;;;;6.30;1.38;;;9.70;59.90;;;;;;5060483;28;20024;-77
2023/04/04 08:25:26;;;;;;;6.63;1.58;;;9.90;58.90;;;;;;5062553;28;20440;-77
2023/04/04 08:27:51;;;;;;;5.60;1.67;;;10.10;59.60;;;;;;5079415;28;20066;-77
2023/04/04 08:30:23;;;;;;;2.90;1.25;;;10.10;59.40;;;;;;5062736;28;20036;-78
2023/04/04 08:32:49;;;;;;;4.35;1.08;;;10.00;57.90;;;;;;5078965;28;20108;-77
2023/04/04 08:35:15;;;;;;;3.55;1.20;;;9.90;57.90;;;;;;5096193;28;20129;-78
2023/04/04 08:37:45;;;;;;;4.00;1.15;;;10.10;57.10;;;;;;5077438;28;20028;-78
2023/04/04 08:40:11;;;;;;;3.90;1.38;;;10.20;56.40;;;;;;5060976;28;20076;-78
2023/04/04 08:42:39;;;;;;;3.20;1.10;;;10.40;55.90;;;;;;5077717;28;20059;-78
2023/04/04 08:45:08;;;;;;;5.00;1.58;;;10.60;56.60;;;;;;5096210;28;20036;-78
2023/04/04 08:47:36;;;;;;;6.47;1.42;;;10.80;56.10;;;;;;5078131;28;20024;-77
2023/04/04 08:50:06;;;;;;;7.13;1.90;;;10.90;56.90;;;;;;5077680;28;20376;-78
2023/04/04 08:52:33;;;;;;;5.25;1.30;;;10.70;57.00;;;;;;5095536;28;20025;-77
2023/04/04 08:55:00;;;;;;;5.68;1.88;;;10.80;57.50;;;;;;5096132;28;20032;-78
2023/04/04 08:57:26;;;;;;;3.65;1.45;;;10.80;57.30;;;;;;5077239;28;20353;-78
2023/04/04 08:59:52;;;;;;;3.35;1.63;;;10.80;57.10;;;;;;5095552;28;20038;-77
2023/04/04 09:02:37;;;;;;;4.25;1.70;;;11.00;55.80;;;;;;5077493;28;20480;-78
2023/04/04 09:05:05;;;;;;;6.05;1.65;;;10.90;56.70;;;;;;5096322;28;20511;-78
2023/04/04 09:07:31;;;;;;;6.00;1.90;;;10.90;56.90;;;;;;5095966;28;20107;-78
2023/04/04 09:09:58;;;;;;;5.75;1.55;;;11.10;56.40;;;;;;5060638;28;20157;-78
2023/04/04 09:12:24;;;;;;;5.15;1.55;;;11.20;55.80;;;;;;5077217;28;20028;-78
2023/04/04 09:14:52;;;;;;;2.95;1.08;;;11.30;54.80;;;;;;5094954;28;20032;-78
2023/04/04 09:17:17;;;;;;;4.93;1.48;;;11.50;55.00;;;;;;5095864;28;20123;-77
2023/04/04 09:19:43;;;;;;;5.30;1.60;;;11.40;54.00;;;;;;5061000;28;20055;-78
2023/04/04 09:22:09;;;;;;;5.22;1.65;;;11.30;52.70;;;;;;5077577;28;20043;-78
2023/04/04 09:24:42;;;;;;;4.93;1.40;;;11.30;53.60;;;;;;5095150;28;20028;-78
2023/04/04 09:27:09;;;;;;;;;;;11.40;53.80;;;;;;5094719;28;20111;-78
2023/04/04 09:29:36;;;;;;;3.13;1.17;;;11.50;53.60;;;;;;5075904;28;19954;-78
2023/04/04 09:32:02;;;;;;;3.97;1.52;;;11.70;53.20;;;;;;5076933;28;20165;-78
2023/04/04 09:34:29;;;;;;;5.75;1.52;;;11.80;53.70;;;;;;5093752;28;20115;-78
2023/04/04 09:36:56;;;;;;;5.13;1.67;;;11.80;52.80;;;;;;5094547;28;20040;-78
2023/04/04 09:39:22;;;;;;;3.83;1.58;;;11.80;53.50;;;;;;5075808;28;20071;-78
2023/04/04 09:41:49;;;;;;;3.95;1.52;;;11.90;52.90;;;;;;5059481;28;20024;-78
2023/04/04 09:44:15;;;;;;;4.38;1.13;;;11.90;52.70;;;;;;5076659;28;20028;-78
2023/04/04 09:46:41;;;;;;;3.95;1.40;;;12.00;52.80;;;;;;5096418;28;20465;-80
2023/04/04 09:49:10;;;;;;;8.43;1.70;;;12.00;52.90;;;;;;5077794;28;20032;-79
2023/04/04 09:51:41;;;;;;;7.00;1.70;;;11.90;53.90;;;;;;5078372;28;20421;-78
2023/04/04 09:54:09;;;;;;;3.45;1.40;;;12.00;52.00;;;;;;5062968;28;20056;-78
2023/04/04 09:56:42;;;;;;;4.53;1.23;;;12.10;52.50;;;;;;5097148;28;20036;-79
2023/04/04 09:59:07;;;;;;;6.45;2.00;;;12.30;52.70;;;;;;5097131;28;20055;-79
2023/04/04 10:01:33;;;;;;;5.30;1.77;;;12.40;52.10;;;;;;5094901;28;20032;-78
2023/04/04 10:03:59;;;;;;;6.22;1.80;;;12.20;52.30;;;;;;5076591;28;20497;-78
2023/04/04 10:06:25;;;;;;;3.72;1.55;;;12.30;52.70;;;;;;5059910;28;20043;-78
2023/04/04 10:08:51;;;;;;;5.75;1.60;;;12.20;52.20;;;;;;5076079;28;20035;-78
2023/04/04 10:11:29;;;;;;;7.13;1.85;;;12.20;52.90;;;;;;5094063;28;20024;-79
2023/04/04 10:13:56;;;;;;;4.88;1.90;;;12.30;52.80;;;;;;5076193;28;20024;-80
2023/04/04 10:16:24;;;;;;;3.80;1.50;;;12.40;52.00;;;;;;5076202;28;20360;-78
2023/04/04 10:18:51;;;;;;;5.70;2.33;;;12.50;52.20;;;;;;5093835;28;20016;-78
2023/04/04 10:21:17;;;;;;;7.00;2.03;;;12.60;51.40;;;;;;5075685;28;20039;-78
2023/04/04 10:23:47;;;;;;;5.45;1.80;;;12.60;51.30;;;;;;5093772;28;20035;-78
2023/04/04 10:26:13;;;;;;;3.83;1.50;;;12.70;51.80;;;;;;5093466;28;20058;-79
2023/04/04 10:28:39;;;;;;;6.25;2.10;;;12.70;49.80;;;;;;5076868;28;20406;-79
2023/04/04 10:31:26;;;;;;;5.13;2.00;;;12.70;52.00;;;;;;5077097;28;20025;-79
2023/04/04 10:34:10;;;;;;;5.05;2.10;;;12.60;51.90;;;;;;5077163;28;20062;-79
2023/04/04 10:36:48;;;;;;;5.78;1.90;;;12.70;52.30;;;;;;5095449;28;20028;-78
2023/04/04 10:39:23;;;;;;;3.78;1.70;;;12.90;51.60;;;;;;5093634;28;20646;-79
2023/04/04 10:41:51;;;;;;;5.05;1.77;;;13.10;51.30;;;;;;5075816;28;20350;-79
2023/04/04 10:44:28;;;;;;;4.75;2.25;;;13.00;51.70;;;;;;5092870;28;20456;-78
2023/04/04 10:46:57;;;;;;;4.82;1.70;;;12.90;53.00;;;;;;5095087;28;20040;-78
2023/04/04 10:49:23;;;;;;;8.05;1.67;;;12.80;52.80;;;;;;5078284;28;20028;-77
2023/04/04 10:51:51;;;;;;;4.45;1.75;;;12.80;53.40;;;;;;5096246;28;20469;-79
2023/04/04 10:54:17;;;;;;;5.72;1.90;;;13.00;53.20;;;;;;5096307;28;20052;-78
2023/04/04 10:56:44;;;;;;;4.32;2.03;;;13.30;51.90;;;;;;5096113;28;20067;-77
2023/04/04 10:59:14;;;;;;;4.18;1.80;;;13.40;51.80;;;;;;5096322;28;20165;-78
2023/04/04 11:01:55;;;;;;;4.43;2.17;;;13.50;51.60;;;;;;5077629;28;20472;-78
2023/04/04 11:04:31;;;;;;;5.22;1.73;;;13.60;52.30;;;;;;5095882;28;20024;-80
2023/04/04 11:07:16;;;;;;;3.40;1.40;;;13.60;50.80;;;;;;5078241;28;20107;-79
2023/04/04 11:09:53;;;;;;;5.18;1.95;;;13.60;51.00;;;;;;5096691;28;20085;-79
2023/04/04 11:12:30;;;;;;;5.50;2.38;;;13.70;51.70;;;;;;5078666;28;20024;-80
2023/04/04 11:14:56;;;;;;;2.22;1.25;;;13.60;53.10;;;;;;5061637;28;20062;-78
2023/04/04 11:17:42;;;;;;;4.28;1.58;;;13.70;52.50;;;;;;5095825;28;20032;-78
2023/04/04 11:20:09;;;;;;;3.47;1.00;;;13.90;52.20;;;;;;5095943;28;20069;-79
2023/04/04 11:22:35;;;;;;;2.70;1.17;;;14.00;51.50;;;;;;5096221;28;20035;-79
2023/04/04 11:25:23;;;;;;;2.80;0.90;;;14.10;51.90;;;;;;5061805;28;20457;-79
2023/04/04 11:27:52;;;;;;;5.13;1.50;;;14.40;54.00;;;;;;5078297;28;20028;-79
2023/04/04 11:30:19;;;;;;;4.75;1.40;;;14.40;51.20;;;;;;5096085;28;20024;-79
2023/04/04 11:32:48;;;;;;;5.10;1.55;;;14.40;51.60;;;;;;5077576;28;20047;-76
2023/04/04 11:35:14;;;;;;;4.97;1.30;;;14.50;53.30;;;;;;5095821;28;20024;-77
2023/04/04 11:38:01;;;;;;;3.05;0.98;;;14.70;51.00;;;;;;5095270;28;20040;-76
2023/04/04 11:40:35;;;;;;;4.03;1.48;;;14.50;52.60;;;;;;5076959;28;20104;-80
2023/04/04 11:43:05;;;;;;;5.70;1.80;;;14.70;52.50;;;;;;5095508;28;20020;-80
2023/04/04 11:45:35;;;;;;;4.80;1.30;;;14.80;51.50;;;;;;5095376;28;20096;-77
2023/04/04 11:48:02;;;;;;;3.90;1.80;;;15.00;51.10;;;;;;5078178;28;20464;-77
2023/04/04 11:50:44;;;;;;;2.92;1.30;;;15.20;51.10;;;;;;5077253;28;20024;-77
2023/04/04 11:53:11;;;;;;;4.53;1.73;;;15.20;50.70;;;;;;5095677;28;20104;-77
2023/04/04 11:55:42;;;;;;;6.55;1.70;;;15.20;50.00;;;;;;5077055;28;20502;-78
2023/04/04 11:58:14;;;;;;;7.20;2.05;;;15.00;49.30;;;;;;5094997;28;20170;-76
2023/04/04 12:00:40;;;;;;;3.90;1.20;;;14.80;49.90;;;;;;5095300;28;20031;-76
2023/04/04 12:03:10;;;;;;;4.68;1.90;;;14.50;50.90;;;;;;5095317;28;20039;-76
2023/04/04 12:05:40;;;;;;;5.68;1.65;;;14.50;50.60;;;;;;5095208;28;20020;-77
2023/04/04 12:08:08;;;;;;;9.18;1.95;;;14.30;50.50;;;;;;5094571;28;20027;-76
2023/04/04 12:10:35;;;;;;;5.00;1.65;;;14.40;51.10;;;;;;5094451;28;20107;-77
2023/04/04 12:13:06;;;;;;;5.07;1.70;;;14.30;50.60;;;;;;5094857;28;20032;-76
2023/04/04 12:15:36;;;;;;;4.55;1.60;;;14.50;51.20;;;;;;5077706;28;20024;-76
2023/04/04 12:18:20;;;;;;;4.35;1.50;;;14.80;52.80;;;;;;5076103;28;20131;-77
2023/04/04 12:20:53;;;;;;;4.53;1.02;;;15.00;50.80;;;;;;5076425;28;20499;-78
2023/04/04 12:23:19;;;;;;;5.63;1.45;;;15.20;51.40;;;;;;5075448;28;20135;-77
2023/04/04 12:25:48;;;;;;;6.20;2.28;;;15.50;52.10;;;;;;5076169;28;20468;-77
2023/04/04 12:28:14;;;;;;;2.72;1.30;;;15.60;48.90;;;;;;5076727;28;20043;-82
2023/04/04 12:30:40;;;;;;;2.55;1.00;;;15.50;50.20;;;;;;5094572;28;20465;-81
2023/04/04 12:33:06;;;;;;;4.70;1.50;;;15.70;54.30;;;;;;5042881;28;20080;-81
2023/04/04 12:35:32;;;;;;;2.35;0.88;;;16.10;52.30;;;;;;5059397;28;20042;-81
2023/04/04 12:38:09;;;;;;;3.13;0.93;;;16.50;54.10;;;;;;5076327;28;20479;-79
2023/04/04 12:40:37;;;;;;;6.53;1.13;;;16.90;52.70;;;;;;5077236;28;20078;-81
2023/04/04 12:43:08;;;;;;;4.78;1.85;;;17.00;47.00;;;;;;5059475;28;20028;-82
2023/04/04 12:45:41;;;;;;;4.50;1.10;;;16.60;47.10;;;;;;5094662;28;20081;-83
2023/04/04 12:48:12;;;;;;;4.40;1.10;;;16.50;48.10;;;;;;5076798;28;20122;-80
2023/04/04 12:50:53;;;;;;;2.72;1.50;;;16.50;48.40;;;;;;5059873;28;20043;-83
2023/04/04 12:53:20;;;;;;;4.72;0.90;;;16.50;47.80;;;;;;5076831;28;20345;-82